Time;durP1;ratioP1;P1;durP2;ratioP2;P2;SDS_P1;SDS_P2;PMS_P1;PMS_P2;Temp;Humidity;BMP_temperature;BMP_pressure;BME280_temperature;BME280_humidity;BME280_pressure;Samples;Min_cycle;Max_cycle;Signal;HPM_P1;HPM_P2
2021/09/28 00:01:50;;;;;;;17.50;14.03;;;20.20;99.90;;;;;;5093893;28;20390;-63
2021/09/28 00:04:16;;;;;;;23.43;15.10;;;20.20;99.90;;;;;;5093463;28;20529;-63
2021/09/28 00:06:41;;;;;;;19.30;15.17;;;20.20;99.90;;;;;;5093724;28;20408;-64
2021/09/28 00:09:07;;;;;;;21.70;16.20;;;20.20;99.90;;;;;;5093469;28;20213;-64
2021/09/28 00:11:33;;;;;;;25.13;16.33;;;20.20;99.90;;;;;;5093822;28;20178;-64
2021/09/28 00:14:00;;;;;;;19.07;15.50;;;20.20;99.90;;;;;;5093440;28;20188;-64
2021/09/28 00:16:30;;;;;;;22.87;16.97;;;20.20;99.90;;;;;;5093486;28;20418;-64
2021/09/28 00:18:56;;;;;;;21.73;15.80;;;20.20;99.90;;;;;;5093327;28;20466;-63
2021/09/28 00:21:21;;;;;;;22.27;16.83;;;20.20;99.90;;;;;;5075362;28;20458;-63
2021/09/28 00:23:47;;;;;;;24.97;17.00;;;20.20;99.90;;;;;;5093370;28;20441;-63
2021/09/28 00:26:12;;;;;;;23.97;17.10;;;20.20;99.90;;;;;;5075226;28;20231;-64
2021/09/28 00:28:38;;;;;;;22.90;17.00;;;20.20;99.90;;;;;;5075220;28;20198;-64
2021/09/28 00:31:04;;;;;;;24.57;17.67;;;20.20;99.90;;;;;;5093503;28;20185;-64
2021/09/28 00:33:29;;;;;;;27.30;17.30;;;20.20;99.90;;;;;;5075160;28;20207;-64
2021/09/28 00:35:55;;;;;;;25.73;17.40;;;20.20;99.90;;;;;;5075200;28;20202;-64
2021/09/28 00:38:21;;;;;;;28.13;17.73;;;20.30;99.90;;;;;;5075052;28;20181;-63
2021/09/28 00:40:47;;;;;;;23.70;16.63;;;20.30;99.90;;;;;;5095468;28;20412;-64
2021/09/28 00:43:13;;;;;;;23.27;17.03;;;20.30;99.90;;;;;;5096972;28;20224;-64
2021/09/28 00:45:39;;;;;;;28.07;19.23;;;20.30;99.90;;;;;;5096828;28;20820;-63
2021/09/28 00:48:04;;;;;;;31.70;20.60;;;20.30;99.90;;;;;;5078697;28;20171;-63
2021/09/28 00:50:31;;;;;;;27.53;18.30;;;20.30;99.90;;;;;;5096744;28;20195;-63
2021/09/28 00:52:57;;;;;;;25.90;18.67;;;20.30;99.90;;;;;;5096731;28;20517;-64
2021/09/28 00:55:27;;;;;;;26.80;18.50;;;20.30;99.90;;;;;;5096539;28;20449;-64
2021/09/28 00:57:56;;;;;;;27.67;18.93;;;20.30;99.90;;;;;;5096645;28;20751;-64
2021/09/28 01:00:22;;;;;;;29.93;20.73;;;20.30;99.90;;;;;;5096585;28;20451;-63
2021/09/28 01:02:47;;;;;;;32.30;20.63;;;20.30;99.90;;;;;;5096655;28;20500;-64
2021/09/28 01:05:14;;;;;;;31.53;20.80;;;20.30;99.90;;;;;;5096534;28;20196;-63
2021/09/28 01:07:40;;;;;;;32.67;20.80;;;20.30;99.90;;;;;;5096890;28;20219;-63
2021/09/28 01:10:08;;;;;;;29.87;21.13;;;20.30;99.90;;;;;;5078130;28;20807;-63
2021/09/28 01:12:33;;;;;;;33.67;23.40;;;20.30;99.90;;;;;;5096401;28;20505;-64
2021/09/28 01:14:59;;;;;;;37.23;25.83;;;20.30;99.90;;;;;;5096255;28;20932;-63
2021/09/28 01:17:25;;;;;;;39.80;27.17;;;20.30;99.90;;;;;;5096486;28;20235;-64
2021/09/28 01:19:50;;;;;;;44.13;26.20;;;20.30;99.90;;;;;;5096514;28;20194;-64
2021/09/28 01:22:17;;;;;;;43.47;27.90;;;20.30;99.90;;;;;;5096554;28;20546;-63
2021/09/28 01:24:47;;;;;;;45.17;28.73;;;20.30;99.90;;;;;;5096058;28;20195;-63
2021/09/28 01:27:13;;;;;;;47.70;29.10;;;20.20;99.90;;;;;;5078024;28;20475;-63
2021/09/28 01:29:40;;;;;;;43.50;28.23;;;20.20;99.90;;;;;;5077861;28;20434;-63
2021/09/28 01:32:06;;;;;;;49.13;29.60;;;20.20;99.90;;;;;;5096357;28;20462;-63
2021/09/28 01:34:32;;;;;;;45.17;30.23;;;20.20;99.90;;;;;;5095934;28;20436;-63
2021/09/28 01:36:58;;;;;;;56.07;29.40;;;20.20;99.90;;;;;;5096231;28;20808;-64
2021/09/28 01:39:24;;;;;;;47.80;30.67;;;20.20;99.90;;;;;;5077653;28;20199;-63
2021/09/28 01:41:52;;;;;;;47.80;30.57;;;20.10;99.90;;;;;;5096109;28;20891;-64
2021/09/28 01:44:19;;;;;;;49.20;32.30;;;20.10;99.90;;;;;;5095813;28;20272;-64
2021/09/28 01:46:48;;;;;;;48.20;32.03;;;20.10;99.90;;;;;;5077390;28;20512;-63
2021/09/28 01:49:16;;;;;;;48.23;30.23;;;20.10;99.90;;;;;;5077358;28;21009;-63
2021/09/28 01:51:42;;;;;;;48.33;29.90;;;20.10;99.90;;;;;;5094508;28;20444;-63
2021/09/28 01:54:08;;;;;;;43.47;28.93;;;20.10;99.90;;;;;;5077331;28;20436;-63
2021/09/28 01:56:35;;;;;;;52.10;32.07;;;20.10;99.90;;;;;;5095693;28;20814;-64
2021/09/28 01:59:02;;;;;;;48.77;30.60;;;20.00;99.90;;;;;;5095425;28;20427;-64
2021/09/28 02:01:28;;;;;;;45.27;30.27;;;20.00;99.90;;;;;;5095677;28;20442;-64
2021/09/28 02:03:54;;;;;;;53.97;33.07;;;20.00;99.90;;;;;;5095292;28;20495;-64
2021/09/28 02:06:21;;;;;;;48.80;31.40;;;20.00;99.90;;;;;;5077168;28;20319;-63
2021/09/28 02:08:47;;;;;;;54.47;33.27;;;20.00;99.90;;;;;;5095171;28;20194;-63
2021/09/28 02:11:13;;;;;;;53.10;32.67;;;19.90;99.90;;;;;;5076893;28;20444;-63
2021/09/28 02:13:39;;;;;;;52.70;30.43;;;20.00;99.90;;;;;;5095124;28;20986;-63
2021/09/28 02:16:05;;;;;;;51.77;31.40;;;19.90;99.90;;;;;;5095248;28;20179;-63
2021/09/28 02:18:31;;;;;;;57.70;33.23;;;19.90;99.90;;;;;;5095121;28;20457;-63
2021/09/28 02:20:57;;;;;;;57.47;33.60;;;19.90;99.90;;;;;;5095099;28;20185;-63
2021/09/28 02:23:22;;;;;;;52.70;32.67;;;19.90;99.90;;;;;;5076912;28;20399;-63
2021/09/28 02:25:48;;;;;;;58.80;35.50;;;19.90;99.90;;;;;;5094997;28;20257;-63
2021/09/28 02:28:13;;;;;;;64.93;38.53;;;19.90;99.90;;;;;;5094895;28;20253;-64
2021/09/28 02:30:39;;;;;;;62.23;36.53;;;19.90;99.90;;;;;;5094952;28;20215;-63
2021/09/28 02:33:06;;;;;;;69.93;34.63;;;19.90;99.90;;;;;;5094822;28;20162;-63
2021/09/28 02:35:31;;;;;;;62.77;35.80;;;19.80;99.90;;;;;;5094588;28;20448;-63
2021/09/28 02:37:58;;;;;;;63.57;36.43;;;19.80;99.90;;;;;;5076536;28;20781;-64
2021/09/28 02:40:25;;;;;;;67.43;37.10;;;19.80;99.90;;;;;;5094481;28;20233;-64
2021/09/28 02:42:52;;;;;;;71.93;38.00;;;19.70;99.90;;;;;;5094618;28;20430;-64
2021/09/28 02:45:17;;;;;;;67.07;37.10;;;19.70;99.90;;;;;;5076398;28;20467;-63
2021/09/28 02:47:43;;;;;;;65.53;37.13;;;19.70;99.90;;;;;;5076094;28;20482;-64
2021/09/28 02:50:09;;;;;;;65.33;35.70;;;19.60;99.90;;;;;;5094454;28;20203;-64
2021/09/28 02:52:35;;;;;;;62.90;36.93;;;19.60;99.90;;;;;;5095034;28;20248;-64
2021/09/28 02:55:00;;;;;;;62.57;35.10;;;19.60;99.90;;;;;;5094320;28;20424;-63
2021/09/28 02:57:26;;;;;;;62.70;35.00;;;19.60;99.90;;;;;;5094939;28;20179;-63
2021/09/28 02:59:52;;;;;;;66.50;36.20;;;19.60;99.90;;;;;;5094199;28;20278;-64
2021/09/28 03:02:17;;;;;;;67.33;35.10;;;19.50;99.90;;;;;;5094565;28;20182;-63
2021/09/28 03:04:43;;;;;;;71.30;38.00;;;19.60;99.90;;;;;;5094172;28;20197;-63
2021/09/28 03:07:09;;;;;;;64.47;34.10;;;19.60;99.90;;;;;;5094688;28;20219;-64
2021/09/28 03:09:34;;;;;;;64.30;34.33;;;19.50;99.90;;;;;;5094248;28;20197;-63
2021/09/28 03:12:00;;;;;;;64.87;35.00;;;19.60;99.90;;;;;;5094428;28;20176;-64
2021/09/28 03:14:27;;;;;;;67.20;34.80;;;19.60;99.90;;;;;;5075894;28;20193;-63
2021/09/28 03:16:53;;;;;;;61.23;34.23;;;19.50;99.90;;;;;;5094214;28;20248;-63
2021/09/28 03:19:20;;;;;;;61.50;33.80;;;19.50;99.90;;;;;;5094128;28;20821;-63
2021/09/28 03:21:46;;;;;;;61.00;33.67;;;19.50;99.90;;;;;;5075921;28;20193;-64
2021/09/28 03:24:12;;;;;;;56.47;31.13;;;19.50;99.90;;;;;;5094006;28;20431;-63
2021/09/28 03:26:38;;;;;;;55.40;32.00;;;19.50;99.90;;;;;;5094176;28;20207;-63
2021/09/28 03:29:04;;;;;;;54.30;31.80;;;19.50;99.90;;;;;;5093544;28;20419;-63
2021/09/28 03:31:29;;;;;;;58.87;33.07;;;19.50;99.90;;;;;;5094163;28;20208;-63
2021/09/28 03:33:55;;;;;;;53.90;30.17;;;19.50;99.90;;;;;;5093792;28;20241;-63
2021/09/28 03:36:20;;;;;;;55.40;30.80;;;19.50;99.90;;;;;;5093971;28;20177;-64
2021/09/28 03:38:46;;;;;;;52.30;31.60;;;19.50;99.90;;;;;;5093780;28;20194;-63
2021/09/28 03:41:11;;;;;;;59.73;31.97;;;19.50;99.90;;;;;;5075765;28;20185;-63
2021/09/28 03:43:37;;;;;;;52.80;29.90;;;19.50;99.90;;;;;;5093796;28;20609;-63
2021/09/28 03:46:03;;;;;;;55.00;31.17;;;19.50;99.90;;;;;;5093728;28;20241;-63
2021/09/28 03:48:28;;;;;;;49.00;29.30;;;19.50;99.90;;;;;;5075591;28;20350;-63
2021/09/28 03:50:54;;;;;;;50.37;28.47;;;19.50;99.90;;;;;;5093789;28;20182;-63
2021/09/28 03:53:20;;;;;;;47.10;26.50;;;19.50;99.90;;;;;;5093707;28;20167;-63
2021/09/28 03:55:45;;;;;;;54.23;31.80;;;19.50;99.90;;;;;;5075553;28;20627;-64
2021/09/28 03:58:12;;;;;;;49.47;29.07;;;19.50;99.90;;;;;;5093564;28;20411;-63
2021/09/28 04:00:38;;;;;;;47.87;28.17;;;19.50;99.90;;;;;;5093653;28;20201;-64
2021/09/28 04:03:05;;;;;;;50.50;27.43;;;19.50;99.90;;;;;;5075397;28;20941;-64
2021/09/28 04:05:31;;;;;;;46.67;27.07;;;19.50;99.90;;;;;;5093287;28;20422;-63
2021/09/28 04:07:56;;;;;;;46.30;27.23;;;19.50;99.90;;;;;;5093524;28;20441;-63
2021/09/28 04:10:22;;;;;;;49.53;27.83;;;19.50;99.90;;;;;;5075211;28;20913;-63
2021/09/28 04:12:48;;;;;;;42.27;26.50;;;19.50;99.90;;;;;;5093457;28;20643;-64
2021/09/28 04:15:14;;;;;;;47.17;26.10;;;19.50;99.90;;;;;;5094905;28;20197;-63
2021/09/28 04:17:40;;;;;;;47.67;26.73;;;19.50;99.90;;;;;;5079380;28;20763;-64
2021/09/28 04:20:06;;;;;;;44.53;26.40;;;19.40;99.90;;;;;;5079228;28;20428;-63
2021/09/28 04:22:32;;;;;;;44.10;26.00;;;19.40;99.90;;;;;;5097886;28;20182;-63
2021/09/28 04:24:58;;;;;;;42.53;25.97;;;19.40;99.90;;;;;;5079071;28;20588;-63
2021/09/28 04:27:23;;;;;;;41.33;24.30;;;19.40;99.90;;;;;;5079281;28;20519;-63
2021/09/28 04:29:49;;;;;;;40.77;24.60;;;19.40;99.90;;;;;;5097155;28;20216;-64
2021/09/28 04:32:15;;;;;;;44.93;26.20;;;19.40;99.90;;;;;;5097570;28;20546;-63
2021/09/28 04:34:40;;;;;;;39.47;24.80;;;19.40;99.90;;;;;;5097215;28;20723;-63
2021/09/28 04:37:06;;;;;;;36.20;23.43;;;19.40;99.90;;;;;;5097371;28;20192;-63
2021/09/28 04:39:32;;;;;;;44.87;25.17;;;19.40;99.90;;;;;;5097082;28;20195;-64
2021/09/28 04:41:58;;;;;;;39.67;23.83;;;19.30;99.90;;;;;;5078963;28;20236;-63
2021/09/28 04:44:23;;;;;;;44.13;25.30;;;19.40;99.90;;;;;;5096978;28;20927;-63
2021/09/28 04:46:49;;;;;;;41.40;25.07;;;19.40;99.90;;;;;;5097119;28;20272;-63
2021/09/28 04:49:15;;;;;;;42.07;26.10;;;19.40;99.90;;;;;;5096942;28;20193;-64
2021/09/28 04:51:41;;;;;;;42.20;25.43;;;19.40;99.90;;;;;;5086819;28;20429;-63
2021/09/28 04:54:07;;;;;;;40.07;25.70;;;19.40;99.90;;;;;;5081926;28;20217;-63
2021/09/28 04:56:33;;;;;;;44.80;26.10;;;19.30;99.90;;;;;;5095444;28;20226;-63
2021/09/28 04:58:59;;;;;;;43.20;27.10;;;19.30;99.90;;;;;;5083926;28;20841;-64
2021/09/28 05:01:24;;;;;;;41.53;26.00;;;19.30;99.90;;;;;;5088955;28;20447;-63
2021/09/28 05:03:50;;;;;;;39.33;26.67;;;19.30;99.90;;;;;;5102736;28;20201;-64
2021/09/28 05:06:15;;;;;;;43.70;27.07;;;19.30;99.90;;;;;;5069501;28;20317;-64
2021/09/28 05:08:41;;;;;;;45.97;26.60;;;19.30;99.90;;;;;;5101975;28;20201;-64
2021/09/28 05:11:11;;;;;;;41.83;25.73;;;19.30;99.90;;;;;;5102123;28;20214;-64
2021/09/28 05:13:37;;;;;;;41.20;26.03;;;19.30;99.90;;;;;;5095288;28;20202;-63
2021/09/28 05:16:03;;;;;;;40.73;25.70;;;19.30;99.90;;;;;;5076074;28;20921;-64
2021/09/28 05:18:29;;;;;;;44.23;26.47;;;19.30;99.90;;;;;;5089942;28;20542;-64
2021/09/28 05:20:54;;;;;;;42.77;26.17;;;19.30;99.90;;;;;;5087481;28;20190;-64
2021/09/28 05:23:20;;;;;;;45.33;28.80;;;19.30;99.90;;;;;;5105702;28;20173;-64
2021/09/28 05:25:45;;;;;;;44.00;27.90;;;19.30;99.90;;;;;;5086538;28;20187;-64
2021/09/28 05:28:11;;;;;;;46.70;27.40;;;19.30;99.90;;;;;;5116594;28;20543;-64
2021/09/28 05:30:37;;;;;;;42.33;27.70;;;19.30;99.90;;;;;;5116477;28;20181;-63
2021/09/28 05:33:03;;;;;;;49.00;28.33;;;19.30;99.90;;;;;;5094477;28;20189;-64
2021/09/28 05:35:29;;;;;;;49.97;26.03;;;19.30;99.90;;;;;;5084131;28;20440;-64
2021/09/28 05:37:54;;;;;;;43.23;26.10;;;19.30;99.90;;;;;;5058550;28;20431;-63
2021/09/28 05:40:20;;;;;;;45.30;27.33;;;19.30;99.90;;;;;;5096895;28;20193;-63
2021/09/28 05:42:46;;;;;;;45.47;27.10;;;19.30;99.90;;;;;;5096007;28;20178;-63
2021/09/28 05:45:12;;;;;;;47.47;27.30;;;19.30;99.90;;;;;;5095712;28;20190;-63
2021/09/28 05:47:37;;;;;;;42.67;26.60;;;19.30;99.90;;;;;;5095745;28;20289;-63
2021/09/28 05:50:05;;;;;;;48.73;28.80;;;19.30;99.90;;;;;;5096516;28;20550;-64
2021/09/28 05:52:31;;;;;;;41.63;24.70;;;19.30;99.90;;;;;;5092755;28;20173;-63
2021/09/28 05:54:57;;;;;;;42.97;26.10;;;19.30;99.90;;;;;;5086117;28;20433;-63
2021/09/28 05:57:23;;;;;;;43.63;26.80;;;19.30;99.90;;;;;;5091992;28;20422;-64
2021/09/28 05:59:49;;;;;;;41.93;24.63;;;19.30;99.90;;;;;;5077682;28;20213;-64
2021/09/28 06:02:17;;;;;;;41.43;26.43;;;19.30;99.90;;;;;;5102418;28;20410;-63
2021/09/28 06:04:43;;;;;;;47.63;26.07;;;19.30;99.90;;;;;;5108916;28;20443;-64
2021/09/28 06:07:09;;;;;;;46.53;26.20;;;19.30;99.90;;;;;;5080203;28;20473;-63
2021/09/28 06:09:37;;;;;;;46.10;28.00;;;19.30;99.90;;;;;;5085632;28;20504;-63
2021/09/28 06:12:08;;;;;;;38.53;25.43;;;19.30;99.90;;;;;;5075139;28;20430;-64
2021/09/28 06:14:34;;;;;;;43.50;25.03;;;19.30;99.90;;;;;;5079484;28;20450;-63
2021/09/28 06:17:01;;;;;;;40.07;24.93;;;19.30;99.90;;;;;;5081155;28;20542;-64
2021/09/28 06:19:28;;;;;;;49.60;29.07;;;19.30;99.90;;;;;;5085282;28;20455;-63
2021/09/28 06:21:55;;;;;;;39.60;26.07;;;19.30;99.90;;;;;;5087596;28;20433;-63
2021/09/28 06:24:20;;;;;;;42.83;25.30;;;19.40;99.90;;;;;;5069666;28;20443;-63
2021/09/28 06:26:49;;;;;;;45.43;26.13;;;19.40;99.90;;;;;;5106655;28;20474;-63
2021/09/28 06:29:15;;;;;;;42.70;25.77;;;19.40;99.90;;;;;;5105226;28;20306;-63
2021/09/28 06:31:42;;;;;;;37.90;25.40;;;19.40;99.90;;;;;;5091052;28;20443;-63
2021/09/28 06:34:08;;;;;;;40.63;25.23;;;19.40;99.90;;;;;;5093284;28;21009;-63
2021/09/28 06:36:34;;;;;;;33.63;24.00;;;19.40;99.90;;;;;;5069934;28;20439;-64
2021/09/28 06:38:59;;;;;;;50.13;30.20;;;19.50;99.90;;;;;;5073745;28;20439;-64
2021/09/28 06:41:26;;;;;;;43.97;27.70;;;19.50;99.90;;;;;;5056039;28;20426;-63
2021/09/28 06:43:52;;;;;;;38.30;24.90;;;19.50;99.90;;;;;;5085969;28;20194;-63
2021/09/28 06:46:18;;;;;;;41.10;24.60;;;19.50;99.90;;;;;;5087210;28;20489;-63
2021/09/28 06:48:44;;;;;;;38.77;23.73;;;19.50;99.90;;;;;;5095580;28;20235;-64
2021/09/28 06:51:09;;;;;;;39.57;23.73;;;19.50;99.90;;;;;;5093528;28;20272;-64
2021/09/28 06:53:35;;;;;;;38.17;23.97;;;19.50;99.90;;;;;;5083219;28;20218;-64
2021/09/28 06:56:00;;;;;;;40.30;24.80;;;19.50;99.90;;;;;;5093898;28;20225;-63
2021/09/28 06:58:26;;;;;;;43.43;26.87;;;19.50;99.90;;;;;;5083765;28;20185;-63
2021/09/28 07:00:52;;;;;;;36.03;24.67;;;19.60;99.90;;;;;;5070762;28;20549;-64
2021/09/28 07:03:20;;;;;;;36.47;24.40;;;19.60;99.90;;;;;;5074531;28;20179;-63
2021/09/28 07:05:46;;;;;;;35.93;22.87;;;19.60;99.90;;;;;;5079250;28;20272;-63
2021/09/28 07:08:12;;;;;;;36.47;23.60;;;19.60;99.90;;;;;;5102030;28;20429;-63
2021/09/28 07:10:37;;;;;;;39.30;25.90;;;19.60;99.90;;;;;;5092068;28;20446;-63
2021/09/28 07:13:03;;;;;;;34.63;22.73;;;19.60;99.90;;;;;;5076730;28;20187;-63
2021/09/28 07:15:29;;;;;;;34.60;22.80;;;19.70;99.90;;;;;;5082296;28;20660;-63
2021/09/28 07:17:55;;;;;;;32.97;23.93;;;19.70;99.90;;;;;;5089498;28;20317;-64
2021/09/28 07:20:21;;;;;;;36.40;22.97;;;19.80;99.90;;;;;;5071043;28;20534;-63
2021/09/28 07:22:47;;;;;;;30.43;21.10;;;19.80;99.90;;;;;;5085676;28;20179;-63
2021/09/28 07:25:13;;;;;;;32.70;22.30;;;19.90;99.90;;;;;;5083573;28;20482;-63
2021/09/28 07:27:39;;;;;;;36.23;22.80;;;19.90;99.90;;;;;;5068613;28;20499;-64
2021/09/28 07:30:06;;;;;;;31.53;21.60;;;19.90;99.90;;;;;;5084883;28;20446;-63
2021/09/28 07:32:32;;;;;;;27.53;19.97;;;19.90;99.90;;;;;;5072559;28;20278;-63
2021/09/28 07:34:57;;;;;;;27.87;20.30;;;20.00;99.90;;;;;;5090719;28;20954;-63
2021/09/28 07:37:27;;;;;;;29.57;19.03;;;20.00;99.90;;;;;;5073956;28;20939;-63
2021/09/28 07:39:54;;;;;;;32.03;21.30;;;20.00;99.90;;;;;;5087272;28;20206;-63
2021/09/28 07:42:20;;;;;;;30.60;21.17;;;20.10;99.90;;;;;;5068514;28;20953;-63
2021/09/28 07:44:47;;;;;;;31.30;22.40;;;20.10;99.90;;;;;;5085814;28;20447;-63
2021/09/28 07:47:13;;;;;;;27.80;21.17;;;20.10;99.90;;;;;;5091081;28;20474;-63
2021/09/28 07:49:39;;;;;;;34.57;21.77;;;20.10;99.90;;;;;;5095169;28;20852;-63
2021/09/28 07:52:04;;;;;;;30.13;22.80;;;20.10;99.90;;;;;;5091752;28;20454;-63
2021/09/28 07:54:30;;;;;;;33.90;22.97;;;20.10;99.90;;;;;;5090849;28;20482;-63
2021/09/28 07:56:58;;;;;;;31.20;22.93;;;20.10;99.90;;;;;;5073767;28;20187;-63
2021/09/28 07:59:24;;;;;;;32.00;23.27;;;20.10;99.90;;;;;;5092847;28;20885;-64
2021/09/28 08:01:49;;;;;;;31.30;21.93;;;20.10;99.90;;;;;;5107769;28;20470;-64
2021/09/28 08:04:19;;;;;;;34.60;23.40;;;20.10;99.90;;;;;;5103898;28;20684;-64
2021/09/28 08:06:45;;;;;;;47.67;31.30;;;20.10;99.90;;;;;;5102302;28;20211;-63
2021/09/28 08:09:11;;;;;;;40.10;25.13;;;20.10;99.90;;;;;;5104749;28;20503;-63
2021/09/28 08:11:36;;;;;;;35.87;24.07;;;20.10;99.90;;;;;;5106590;28;20450;-64
2021/09/28 08:14:02;;;;;;;32.23;24.17;;;20.10;99.90;;;;;;5111160;28;20296;-64
2021/09/28 08:16:29;;;;;;;36.93;23.07;;;20.10;99.90;;;;;;5097930;28;20190;-63
2021/09/28 08:18:55;;;;;;;35.60;22.03;;;20.20;99.90;;;;;;5102464;28;20434;-64
2021/09/28 08:21:21;;;;;;;32.63;24.20;;;20.20;99.90;;;;;;5090568;28;21001;-63
2021/09/28 08:23:47;;;;;;;32.67;22.40;;;20.20;99.90;;;;;;5106731;28;20543;-63
2021/09/28 08:29:09;;;;;;;35.50;24.60;;;20.30;99.90;;;;;;5095589;28;20470;-63
2021/09/28 08:31:37;;;;;;;36.17;24.67;;;20.30;99.90;;;;;;5107617;28;20425;-63
2021/09/28 08:34:04;;;;;;;30.43;22.43;;;20.40;99.90;;;;;;5096506;28;20526;-66
2021/09/28 08:36:30;;;;;;;33.40;23.30;;;20.40;99.90;;;;;;5094389;28;20429;-63
2021/09/28 08:38:56;;;;;;;34.60;22.37;;;20.40;99.90;;;;;;5082798;28;20451;-66
2021/09/28 08:41:22;;;;;;;34.87;24.60;;;20.50;99.90;;;;;;5102920;28;20426;-66
2021/09/28 08:43:51;;;;;;;32.10;22.13;;;20.50;99.90;;;;;;5107869;28;20201;-67
2021/09/28 08:46:18;;;;;;;35.80;24.57;;;20.60;99.90;;;;;;5107086;28;20474;-63
2021/09/28 08:48:46;;;;;;;32.93;23.70;;;20.60;99.90;;;;;;5097980;28;20814;-64
2021/09/28 08:51:12;;;;;;;36.20;23.53;;;20.60;99.90;;;;;;5095533;28;20442;-66
2021/09/28 08:53:38;;;;;;;37.13;24.70;;;20.70;99.90;;;;;;5080424;28;20451;-65
2021/09/28 08:56:05;;;;;;;30.63;22.43;;;20.70;99.90;;;;;;5094148;28;20894;-66
2021/09/28 08:58:32;;;;;;;32.50;23.30;;;20.80;99.90;;;;;;5071008;28;20210;-64
2021/09/28 09:01:06;;;;;;;33.40;24.20;;;20.80;99.90;;;;;;5090904;28;20444;-65
2021/09/28 09:03:35;;;;;;;39.57;24.00;;;20.80;99.90;;;;;;5087997;28;20459;-64
2021/09/28 09:06:04;;;;;;;33.70;24.00;;;20.80;99.90;;;;;;5074231;28;20470;-63
2021/09/28 09:08:33;;;;;;;35.37;24.50;;;20.70;99.90;;;;;;5076849;28;20453;-67
2021/09/28 09:11:13;;;;;;;34.50;24.73;;;20.70;99.90;;;;;;5077714;28;20459;-66
2021/09/28 09:13:46;;;;;;;32.80;24.33;;;20.80;99.90;;;;;;5097182;28;21056;-63
2021/09/28 09:16:14;;;;;;;32.77;23.80;;;20.80;99.90;;;;;;5077760;28;20451;-67
2021/09/28 09:18:45;;;;;;;36.43;25.30;;;20.80;99.90;;;;;;5076153;28;20460;-65
2021/09/28 09:21:14;;;;;;;30.70;24.53;;;20.90;99.90;;;;;;5076932;28;20441;-63
2021/09/28 09:23:42;;;;;;;34.70;24.63;;;20.90;99.90;;;;;;5090075;28;20445;-65
2021/09/28 09:26:16;;;;;;;35.60;25.13;;;20.90;99.90;;;;;;5093919;28;20517;-66
2021/09/28 09:28:53;;;;;;;32.57;24.13;;;20.90;99.90;;;;;;5099152;28;20447;-66
2021/09/28 09:31:35;;;;;;;32.20;24.53;;;20.90;99.90;;;;;;5089072;28;20463;-64
2021/09/28 09:34:16;;;;;;;30.10;23.60;;;21.00;99.90;;;;;;5091853;28;20458;-65
2021/09/28 09:36:43;;;;;;;30.40;23.03;;;21.00;99.90;;;;;;5089308;28;20973;-64
2021/09/28 09:39:09;;;;;;;32.93;23.40;;;21.10;99.90;;;;;;5097429;28;20444;-67
2021/09/28 09:41:40;;;;;;;32.13;25.53;;;21.10;99.90;;;;;;5090059;28;21129;-65
2021/09/28 09:44:09;;;;;;;35.80;24.67;;;21.10;99.90;;;;;;5049586;28;20444;-64
2021/09/28 09:46:42;;;;;;;29.93;22.50;;;21.20;99.90;;;;;;5094997;28;20475;-64
2021/09/28 09:49:09;;;;;;;34.17;24.83;;;21.30;99.90;;;;;;5075696;28;20443;-64
2021/09/28 09:51:49;;;;;;;30.23;23.20;;;21.30;99.90;;;;;;5077905;28;20454;-67
2021/09/28 09:54:15;;;;;;;32.17;23.93;;;21.40;99.90;;;;;;5069256;28;20456;-64
2021/09/28 09:56:48;;;;;;;30.17;22.20;;;21.40;99.90;;;;;;5095958;28;20428;-63
2021/09/28 09:59:18;;;;;;;28.90;22.13;;;21.50;99.90;;;;;;5086418;28;20449;-64
2021/09/28 10:01:45;;;;;;;30.10;23.20;;;21.60;99.90;;;;;;5085261;28;20435;-66
2021/09/28 10:04:13;;;;;;;32.53;24.10;;;21.60;99.90;;;;;;5108977;28;20929;-65
2021/09/28 10:06:39;;;;;;;31.50;24.30;;;21.60;99.90;;;;;;5106060;28;20480;-63
2021/09/28 10:09:13;;;;;;;26.23;22.20;;;21.60;99.90;;;;;;5106852;28;20439;-63
2021/09/28 10:11:40;;;;;;;32.93;21.87;;;21.60;99.90;;;;;;5083207;28;20184;-64
2021/09/28 10:14:06;;;;;;;27.70;23.03;;;21.60;99.90;;;;;;5092592;28;20452;-64
2021/09/28 10:16:39;;;;;;;130.23;82.53;;;21.60;99.90;;;;;;5096282;28;20480;-65
2021/09/28 10:19:27;;;;;;;31.53;24.03;;;21.60;99.90;;;;;;5099582;28;20443;-65
2021/09/28 10:21:54;;;;;;;26.47;21.90;;;21.70;99.90;;;;;;5091501;28;20786;-64
2021/09/28 10:24:26;;;;;;;33.23;25.00;;;21.60;99.90;;;;;;5086774;28;20472;-64
2021/09/28 10:27:00;;;;;;;30.53;23.57;;;21.60;99.90;;;;;;5092667;28;20480;-63
2021/09/28 10:29:44;;;;;;;28.20;23.33;;;21.60;99.90;;;;;;5081011;28;20441;-66
2021/09/28 10:32:22;;;;;;;33.30;23.43;;;21.60;99.90;;;;;;5074762;28;20445;-66
2021/09/28 10:35:09;;;;;;;29.83;23.87;;;21.60;99.90;;;;;;5109822;28;20435;-64
2021/09/28 10:37:50;;;;;;;28.53;22.40;;;21.60;99.90;;;;;;5091790;28;20478;-64
2021/09/28 10:40:22;;;;;;;34.67;23.77;;;21.60;99.90;;;;;;5100437;28;20444;-66
2021/09/28 10:42:55;;;;;;;31.00;25.00;;;21.60;99.90;;;;;;5103261;28;21353;-66
2021/09/28 10:45:41;;;;;;;33.40;25.00;;;21.60;99.90;;;;;;5083920;28;20424;-67
2021/09/28 10:48:30;;;;;;;29.97;24.50;;;21.60;99.90;;;;;;5068630;28;20914;-66
2021/09/28 10:51:22;;;;;;;32.90;25.57;;;21.60;99.90;;;;;;5086706;28;20440;-64
2021/09/28 10:53:53;;;;;;;32.13;25.30;;;21.70;99.90;;;;;;5065837;28;20453;-66
2021/09/28 10:56:19;;;;;;;33.80;24.40;;;21.70;99.90;;;;;;5090187;28;20441;-64
2021/09/28 10:58:55;;;;;;;30.60;24.40;;;21.70;99.90;;;;;;5082672;28;20448;-68
2021/09/28 11:01:27;;;;;;;28.77;24.13;;;21.70;99.90;;;;;;5094444;28;20475;-66
2021/09/28 11:03:56;;;;;;;35.63;23.70;;;21.70;99.90;;;;;;5096293;28;20515;-66
2021/09/28 11:06:45;;;;;;;29.43;22.77;;;21.70;99.90;;;;;;5074494;28;20473;-64
2021/09/28 11:09:15;;;;;;;31.43;23.10;;;21.70;99.90;;;;;;5067575;28;20460;-64
2021/09/28 11:11:41;;;;;;;29.00;22.27;;;21.70;99.90;;;;;;5069564;28;20444;-66
2021/09/28 11:14:10;;;;;;;27.47;22.10;;;21.70;99.90;;;;;;5084155;28;20445;-68
2021/09/28 11:16:52;;;;;;;28.93;23.20;;;21.70;99.90;;;;;;5057345;28;20974;-68
2021/09/28 11:19:18;;;;;;;29.90;23.30;;;21.70;99.90;;;;;;5081732;28;20419;-67
2021/09/28 11:21:45;;;;;;;29.37;22.43;;;21.70;99.90;;;;;;5071237;28;20429;-66
2021/09/28 11:24:12;;;;;;;35.90;24.77;;;21.80;99.90;;;;;;5089876;28;22344;-66
2021/09/28 11:26:42;;;;;;;27.07;22.40;;;21.80;99.90;;;;;;5085455;28;21144;-64
2021/09/28 11:29:10;;;;;;;31.13;23.10;;;21.80;99.90;;;;;;5086232;28;20510;-65
2021/09/28 11:31:39;;;;;;;30.57;24.97;;;21.80;99.90;;;;;;5084234;28;20524;-64
2021/09/28 11:34:05;;;;;;;33.80;24.27;;;21.80;99.90;;;;;;5080063;28;20449;-65
2021/09/28 11:36:33;;;;;;;30.90;24.07;;;21.80;99.90;;;;;;5090121;28;20524;-64
2021/09/28 11:38:59;;;;;;;30.63;22.97;;;21.80;99.90;;;;;;5073848;28;20382;-66
2021/09/28 11:41:25;;;;;;;35.50;24.57;;;21.80;99.90;;;;;;5087712;28;20863;-64
2021/09/28 11:43:53;;;;;;;35.20;25.20;;;21.70;99.90;;;;;;5089557;28;20452;-64
2021/09/28 11:46:21;;;;;;;28.70;23.40;;;21.70;99.90;;;;;;5086278;28;20192;-64
2021/09/28 11:48:54;;;;;;;28.40;22.97;;;21.70;99.90;;;;;;5085986;28;20456;-65
2021/09/28 11:51:24;;;;;;;27.73;22.03;;;21.70;99.90;;;;;;5082122;28;20433;-65
2021/09/28 11:53:51;;;;;;;29.83;23.17;;;21.70;99.90;;;;;;5065750;28;20927;-64
2021/09/28 11:56:21;;;;;;;31.23;23.43;;;21.70;99.90;;;;;;5088739;28;20514;-65
2021/09/28 11:58:51;;;;;;;31.80;23.27;;;21.70;99.90;;;;;;5068968;28;20477;-65
2021/09/28 12:01:18;;;;;;;36.30;23.97;;;21.70;99.90;;;;;;5097234;28;20472;-70
2021/09/28 12:07:06;;;;;;;26.27;22.30;;;21.80;99.90;;;;;;5092564;28;20475;-67
2021/09/28 12:09:35;;;;;;;29.50;21.00;;;21.90;99.90;;;;;;5087012;28;20953;-68
2021/09/28 12:12:05;;;;;;;30.30;23.00;;;21.90;99.90;;;;;;5088032;28;20441;-66
2021/09/28 12:14:48;;;;;;;30.63;22.37;;;22.00;99.90;;;;;;5095045;28;20439;-69
2021/09/28 12:17:17;;;;;;;28.07;21.53;;;22.00;99.90;;;;;;5071114;28;20519;-67
2021/09/28 12:19:45;;;;;;;30.00;21.90;;;22.00;99.90;;;;;;5063880;28;20820;-67
2021/09/28 12:22:12;;;;;;;25.43;20.10;;;22.10;99.90;;;;;;5085667;28;20437;-64
2021/09/28 12:24:54;;;;;;;24.10;20.13;;;22.10;99.90;;;;;;5087857;28;20502;-64
2021/09/28 12:27:21;;;;;;;26.77;21.00;;;22.10;99.90;;;;;;5092394;28;20488;-67
2021/09/28 12:29:49;;;;;;;25.70;20.40;;;22.10;99.90;;;;;;5074332;28;20453;-67
2021/09/28 12:32:30;;;;;;;23.67;19.33;;;22.10;99.90;;;;;;5088775;28;20525;-67
2021/09/28 12:35:04;;;;;;;20.00;17.87;;;22.10;99.90;;;;;;5090587;28;20487;-64